sensor_id;sensor_type;location;lat;lon;timestamp;P1;durP1;ratioP1;P2;durP2;ratioP2
4122;SDS011;2075;51.062;6.920;2024-03-02T00:01:48;2.67;;;2.47;;
4122;SDS011;2075;51.062;6.920;2024-03-02T00:04:34;3.13;;;2.30;;
4122;SDS011;2075;51.062;6.920;2024-03-02T00:07:19;2.97;;;2.27;;
4122;SDS011;2075;51.062;6.920;2024-03-02T00:10:07;2.40;;;2.30;;
4122;SDS011;2075;51.062;6.920;2024-03-02T00:12:54;2.50;;;2.40;;
4122;SDS011;2075;51.062;6.920;2024-03-02T00:15:41;4.97;;;2.33;;
4122;SDS011;2075;51.062;6.920;2024-03-02T00:18:31;2.33;;;2.23;;
4122;SDS011;2075;51.062;6.920;2024-03-02T00:21:18;2.63;;;2.43;;
4122;SDS011;2075;51.062;6.920;2024-03-02T00:24:07;2.17;;;2.00;;
4122;SDS011;2075;51.062;6.920;2024-03-02T00:27:05;2.40;;;2.20;;
4122;SDS011;2075;51.062;6.920;2024-03-02T00:29:55;2.10;;;1.93;;
4122;SDS011;2075;51.062;6.920;2024-03-02T00:32:41;2.60;;;2.30;;
4122;SDS011;2075;51.062;6.920;2024-03-02T00:35:27;2.30;;;2.10;;
4122;SDS011;2075;51.062;6.920;2024-03-02T00:38:13;2.33;;;2.20;;
4122;SDS011;2075;51.062;6.920;2024-03-02T00:41:00;2.67;;;2.37;;
4122;SDS011;2075;51.062;6.920;2024-03-02T00:43:56;2.20;;;2.10;;
4122;SDS011;2075;51.062;6.920;2024-03-02T00:46:44;2.10;;;2.00;;
4122;SDS011;2075;51.062;6.920;2024-03-02T00:49:29;2.77;;;2.43;;
4122;SDS011;2075;51.062;6.920;2024-03-02T00:52:15;3.00;;;2.30;;
4122;SDS011;2075;51.062;6.920;2024-03-02T00:55:00;2.00;;;1.90;;
4122;SDS011;2075;51.062;6.920;2024-03-02T00:57:46;1.80;;;1.70;;
4122;SDS011;2075;51.062;6.920;2024-03-02T01:00:33;5.27;;;2.43;;
4122;SDS011;2075;51.062;6.920;2024-03-02T01:03:18;2.20;;;2.00;;
4122;SDS011;2075;51.062;6.920;2024-03-02T01:06:04;2.60;;;2.40;;
4122;SDS011;2075;51.062;6.920;2024-03-02T01:08:51;2.27;;;2.07;;
4122;SDS011;2075;51.062;6.920;2024-03-02T01:11:36;3.20;;;2.00;;
4122;SDS011;2075;51.062;6.920;2024-03-02T01:14:21;2.97;;;2.47;;
4122;SDS011;2075;51.062;6.920;2024-03-02T01:17:08;2.57;;;1.90;;
4122;SDS011;2075;51.062;6.920;2024-03-02T01:19:54;2.10;;;2.00;;
4122;SDS011;2075;51.062;6.920;2024-03-02T01:22:40;2.07;;;1.97;;
4122;SDS011;2075;51.062;6.920;2024-03-02T01:25:25;2.27;;;2.07;;
4122;SDS011;2075;51.062;6.920;2024-03-02T01:28:12;2.13;;;2.00;;
4122;SDS011;2075;51.062;6.920;2024-03-02T01:30:57;3.17;;;2.00;;
4122;SDS011;2075;51.062;6.920;2024-03-02T01:33:44;3.30;;;2.07;;
4122;SDS011;2075;51.062;6.920;2024-03-02T01:36:30;2.57;;;1.93;;
4122;SDS011;2075;51.062;6.920;2024-03-02T01:39:15;4.10;;;2.10;;
4122;SDS011;2075;51.062;6.920;2024-03-02T01:42:01;2.33;;;2.23;;
4122;SDS011;2075;51.062;6.920;2024-03-02T01:44:46;1.70;;;1.70;;
4122;SDS011;2075;51.062;6.920;2024-03-02T01:47:32;3.17;;;2.10;;
4122;SDS011;2075;51.062;6.920;2024-03-02T01:50:25;1.87;;;1.77;;
4122;SDS011;2075;51.062;6.920;2024-03-02T01:53:11;1.70;;;1.67;;
4122;SDS011;2075;51.062;6.920;2024-03-02T01:55:57;2.13;;;2.00;;
4122;SDS011;2075;51.062;6.920;2024-03-02T01:58:43;2.33;;;1.83;;
4122;SDS011;2075;51.062;6.920;2024-03-02T02:01:28;2.10;;;2.00;;
4122;SDS011;2075;51.062;6.920;2024-03-02T02:04:14;2.13;;;1.93;;
4122;SDS011;2075;51.062;6.920;2024-03-02T02:07:02;2.00;;;1.90;;
4122;SDS011;2075;51.062;6.920;2024-03-02T02:09:47;1.80;;;1.70;;
4122;SDS011;2075;51.062;6.920;2024-03-02T02:12:33;1.97;;;1.87;;
4122;SDS011;2075;51.062;6.920;2024-03-02T02:15:22;2.73;;;1.70;;
4122;SDS011;2075;51.062;6.920;2024-03-02T02:18:08;7.83;;;1.80;;
4122;SDS011;2075;51.062;6.920;2024-03-02T02:20:54;2.37;;;2.17;;
4122;SDS011;2075;51.062;6.920;2024-03-02T02:23:40;1.97;;;1.73;;
4122;SDS011;2075;51.062;6.920;2024-03-02T02:26:30;4.63;;;2.07;;
4122;SDS011;2075;51.062;6.920;2024-03-02T02:29:15;2.60;;;1.97;;
4122;SDS011;2075;51.062;6.920;2024-03-02T02:32:01;2.23;;;2.10;;
4122;SDS011;2075;51.062;6.920;2024-03-02T02:34:46;2.17;;;2.03;;
4122;SDS011;2075;51.062;6.920;2024-03-02T02:37:32;2.20;;;2.00;;
4122;SDS011;2075;51.062;6.920;2024-03-02T02:40:19;2.67;;;1.90;;
4122;SDS011;2075;51.062;6.920;2024-03-02T02:43:03;2.13;;;2.00;;
4122;SDS011;2075;51.062;6.920;2024-03-02T02:45:50;1.70;;;1.60;;
4122;SDS011;2075;51.062;6.920;2024-03-02T02:48:36;2.63;;;2.10;;
4122;SDS011;2075;51.062;6.920;2024-03-02T02:51:21;1.90;;;1.80;;
4122;SDS011;2075;51.062;6.920;2024-03-02T02:54:07;2.50;;;2.30;;
4122;SDS011;2075;51.062;6.920;2024-03-02T02:56:54;2.40;;;2.07;;
4122;SDS011;2075;51.062;6.920;2024-03-02T02:59:39;2.50;;;2.30;;
4122;SDS011;2075;51.062;6.920;2024-03-02T03:02:25;1.70;;;1.60;;
4122;SDS011;2075;51.062;6.920;2024-03-02T03:05:13;2.20;;;1.90;;
4122;SDS011;2075;51.062;6.920;2024-03-02T03:07:59;2.07;;;1.97;;
4122;SDS011;2075;51.062;6.920;2024-03-02T03:10:47;1.90;;;1.80;;
4122;SDS011;2075;51.062;6.920;2024-03-02T03:13:34;2.27;;;1.77;;
4122;SDS011;2075;51.062;6.920;2024-03-02T03:16:20;2.17;;;1.90;;
4122;SDS011;2075;51.062;6.920;2024-03-02T03:19:06;1.57;;;1.50;;
4122;SDS011;2075;51.062;6.920;2024-03-02T03:21:52;3.23;;;1.77;;
4122;SDS011;2075;51.062;6.920;2024-03-02T03:24:37;3.23;;;1.70;;
4122;SDS011;2075;51.062;6.920;2024-03-02T03:27:23;2.27;;;1.90;;
4122;SDS011;2075;51.062;6.920;2024-03-02T03:30:10;2.03;;;1.93;;
4122;SDS011;2075;51.062;6.920;2024-03-02T03:32:56;3.87;;;3.50;;
4122;SDS011;2075;51.062;6.920;2024-03-02T03:35:42;2.80;;;1.90;;
4122;SDS011;2075;51.062;6.920;2024-03-02T03:38:27;1.97;;;1.87;;
4122;SDS011;2075;51.062;6.920;2024-03-02T03:41:13;1.83;;;1.73;;
4122;SDS011;2075;51.062;6.920;2024-03-02T03:43:59;1.73;;;1.63;;
4122;SDS011;2075;51.062;6.920;2024-03-02T03:46:45;2.40;;;1.90;;
4122;SDS011;2075;51.062;6.920;2024-03-02T03:49:31;4.93;;;1.80;;
4122;SDS011;2075;51.062;6.920;2024-03-02T03:52:16;2.50;;;2.20;;
4122;SDS011;2075;51.062;6.920;2024-03-02T03:55:01;2.20;;;1.90;;
4122;SDS011;2075;51.062;6.920;2024-03-02T03:57:47;2.80;;;2.00;;
4122;SDS011;2075;51.062;6.920;2024-03-02T04:00:32;2.60;;;2.40;;
4122;SDS011;2075;51.062;6.920;2024-03-02T04:03:19;1.77;;;1.67;;
4122;SDS011;2075;51.062;6.920;2024-03-02T04:06:05;2.33;;;2.23;;
4122;SDS011;2075;51.062;6.920;2024-03-02T04:08:50;4.47;;;2.13;;
4122;SDS011;2075;51.062;6.920;2024-03-02T04:11:36;2.80;;;1.67;;
4122;SDS011;2075;51.062;6.920;2024-03-02T04:14:23;2.40;;;1.97;;
4122;SDS011;2075;51.062;6.920;2024-03-02T04:17:08;2.17;;;1.97;;
4122;SDS011;2075;51.062;6.920;2024-03-02T04:19:56;2.70;;;2.00;;
4122;SDS011;2075;51.062;6.920;2024-03-02T04:22:45;2.13;;;2.03;;
4122;SDS011;2075;51.062;6.920;2024-03-02T04:25:31;3.47;;;1.67;;
4122;SDS011;2075;51.062;6.920;2024-03-02T04:28:19;1.70;;;1.60;;
4122;SDS011;2075;51.062;6.920;2024-03-02T04:31:05;2.87;;;2.13;;
4122;SDS011;2075;51.062;6.920;2024-03-02T04:33:50;1.90;;;1.80;;
4122;SDS011;2075;51.062;6.920;2024-03-02T04:36:37;2.40;;;1.80;;
4122;SDS011;2075;51.062;6.920;2024-03-02T04:39:23;2.20;;;2.00;;
4122;SDS011;2075;51.062;6.920;2024-03-02T04:42:08;2.33;;;2.13;;
4122;SDS011;2075;51.062;6.920;2024-03-02T04:44:54;5.03;;;2.07;;
4122;SDS011;2075;51.062;6.920;2024-03-02T04:47:46;2.13;;;1.93;;
4122;SDS011;2075;51.062;6.920;2024-03-02T04:50:32;3.63;;;2.30;;
4122;SDS011;2075;51.062;6.920;2024-03-02T04:53:22;3.17;;;2.40;;
4122;SDS011;2075;51.062;6.920;2024-03-02T04:56:08;2.90;;;2.33;;
4122;SDS011;2075;51.062;6.920;2024-03-02T04:59:22;2.20;;;2.00;;
4122;SDS011;2075;51.062;6.920;2024-03-02T05:02:08;2.27;;;1.80;;
4122;SDS011;2075;51.062;6.920;2024-03-02T05:04:54;2.30;;;2.00;;
4122;SDS011;2075;51.062;6.920;2024-03-02T05:07:39;5.33;;;2.17;;
4122;SDS011;2075;51.062;6.920;2024-03-02T05:10:27;2.60;;;2.33;;
4122;SDS011;2075;51.062;6.920;2024-03-02T05:13:16;4.33;;;2.10;;
4122;SDS011;2075;51.062;6.920;2024-03-02T05:16:03;2.03;;;1.90;;
4122;SDS011;2075;51.062;6.920;2024-03-02T05:18:49;2.40;;;2.20;;
4122;SDS011;2075;51.062;6.920;2024-03-02T05:21:34;2.30;;;2.13;;
4122;SDS011;2075;51.062;6.920;2024-03-02T05:24:22;2.40;;;1.60;;
4122;SDS011;2075;51.062;6.920;2024-03-02T05:27:09;4.10;;;2.20;;
4122;SDS011;2075;51.062;6.920;2024-03-02T05:29:54;3.10;;;2.20;;
4122;SDS011;2075;51.062;6.920;2024-03-02T05:32:40;3.40;;;2.20;;
4122;SDS011;2075;51.062;6.920;2024-03-02T05:35:27;2.70;;;2.27;;
4122;SDS011;2075;51.062;6.920;2024-03-02T05:38:13;6.47;;;2.17;;
4122;SDS011;2075;51.062;6.920;2024-03-02T05:40:59;2.73;;;2.40;;
4122;SDS011;2075;51.062;6.920;2024-03-02T05:43:54;8.50;;;2.27;;
4122;SDS011;2075;51.062;6.920;2024-03-02T05:46:40;3.03;;;2.27;;
4122;SDS011;2075;51.062;6.920;2024-03-02T05:49:25;8.40;;;2.30;;
4122;SDS011;2075;51.062;6.920;2024-03-02T05:52:12;2.50;;;2.30;;
4122;SDS011;2075;51.062;6.920;2024-03-02T05:55:02;2.57;;;2.37;;
4122;SDS011;2075;51.062;6.920;2024-03-02T05:57:50;2.40;;;2.30;;
4122;SDS011;2075;51.062;6.920;2024-03-02T06:00:58;2.50;;;2.30;;
4122;SDS011;2075;51.062;6.920;2024-03-02T06:03:44;2.23;;;2.13;;
4122;SDS011;2075;51.062;6.920;2024-03-02T06:06:30;2.17;;;2.00;;
4122;SDS011;2075;51.062;6.920;2024-03-02T06:09:16;2.60;;;2.10;;
4122;SDS011;2075;51.062;6.920;2024-03-02T06:12:04;2.50;;;2.30;;
4122;SDS011;2075;51.062;6.920;2024-03-02T06:14:53;3.00;;;2.53;;
4122;SDS011;2075;51.062;6.920;2024-03-02T06:17:44;2.30;;;2.20;;
4122;SDS011;2075;51.062;6.920;2024-03-02T06:20:32;4.43;;;2.57;;
4122;SDS011;2075;51.062;6.920;2024-03-02T06:23:21;2.97;;;2.70;;
4122;SDS011;2075;51.062;6.920;2024-03-02T06:26:08;3.00;;;2.40;;
4122;SDS011;2075;51.062;6.920;2024-03-02T06:28:53;2.43;;;2.30;;
4122;SDS011;2075;51.062;6.920;2024-03-02T06:31:40;5.00;;;2.20;;
4122;SDS011;2075;51.062;6.920;2024-03-02T06:34:29;3.10;;;2.80;;
4122;SDS011;2075;51.062;6.920;2024-03-02T06:37:16;5.73;;;3.00;;
4122;SDS011;2075;51.062;6.920;2024-03-02T06:40:04;4.20;;;2.67;;
4122;SDS011;2075;51.062;6.920;2024-03-02T06:42:55;4.50;;;2.90;;
4122;SDS011;2075;51.062;6.920;2024-03-02T06:45:42;3.17;;;2.83;;
4122;SDS011;2075;51.062;6.920;2024-03-02T06:48:28;3.30;;;3.00;;
4122;SDS011;2075;51.062;6.920;2024-03-02T06:51:18;2.67;;;2.47;;
4122;SDS011;2075;51.062;6.920;2024-03-02T06:54:03;3.70;;;3.40;;
4122;SDS011;2075;51.062;6.920;2024-03-02T06:56:49;2.80;;;2.50;;
4122;SDS011;2075;51.062;6.920;2024-03-02T06:59:35;3.37;;;3.07;;
4122;SDS011;2075;51.062;6.920;2024-03-02T07:02:21;3.67;;;2.83;;
4122;SDS011;2075;51.062;6.920;2024-03-02T07:05:15;4.67;;;3.30;;
4122;SDS011;2075;51.062;6.920;2024-03-02T07:08:02;8.20;;;2.83;;
4122;SDS011;2075;51.062;6.920;2024-03-02T07:10:54;4.70;;;3.00;;
4122;SDS011;2075;51.062;6.920;2024-03-02T07:13:40;6.80;;;3.00;;
4122;SDS011;2075;51.062;6.920;2024-03-02T07:16:27;4.73;;;3.40;;
4122;SDS011;2075;51.062;6.920;2024-03-02T07:19:16;4.65;;;3.20;;
4122;SDS011;2075;51.062;6.920;2024-03-02T07:22:06;4.53;;;2.90;;
4122;SDS011;2075;51.062;6.920;2024-03-02T07:24:55;5.23;;;3.07;;
4122;SDS011;2075;51.062;6.920;2024-03-02T07:27:41;7.27;;;3.30;;
4122;SDS011;2075;51.062;6.920;2024-03-02T07:30:28;3.90;;;3.00;;
4122;SDS011;2075;51.062;6.920;2024-03-02T07:33:14;4.07;;;3.17;;
4122;SDS011;2075;51.062;6.920;2024-03-02T07:36:05;2.73;;;2.53;;
4122;SDS011;2075;51.062;6.920;2024-03-02T07:38:59;5.97;;;3.10;;
4122;SDS011;2075;51.062;6.920;2024-03-02T07:41:48;3.63;;;2.57;;
4122;SDS011;2075;51.062;6.920;2024-03-02T07:44:44;4.10;;;3.50;;
4122;SDS011;2075;51.062;6.920;2024-03-02T07:47:32;4.90;;;2.60;;
4122;SDS011;2075;51.062;6.920;2024-03-02T07:50:17;6.00;;;3.20;;
4122;SDS011;2075;51.062;6.920;2024-03-02T07:53:03;3.40;;;3.10;;
4122;SDS011;2075;51.062;6.920;2024-03-02T07:55:52;3.17;;;2.87;;
4122;SDS011;2075;51.062;6.920;2024-03-02T07:58:48;3.23;;;2.93;;
4122;SDS011;2075;51.062;6.920;2024-03-02T08:01:33;3.80;;;3.20;;
4122;SDS011;2075;51.062;6.920;2024-03-02T08:04:19;3.40;;;3.10;;
4122;SDS011;2075;51.062;6.920;2024-03-02T08:07:07;5.57;;;3.07;;
4122;SDS011;2075;51.062;6.920;2024-03-02T08:09:55;4.57;;;2.80;;
4122;SDS011;2075;51.062;6.920;2024-03-02T08:12:40;3.37;;;3.17;;
4122;SDS011;2075;51.062;6.920;2024-03-02T08:15:30;4.60;;;2.77;;
4122;SDS011;2075;51.062;6.920;2024-03-02T08:18:16;3.30;;;3.00;;
4122;SDS011;2075;51.062;6.920;2024-03-02T08:21:03;3.67;;;2.73;;
4122;SDS011;2075;51.062;6.920;2024-03-02T08:23:51;3.50;;;2.63;;
4122;SDS011;2075;51.062;6.920;2024-03-02T08:26:42;4.60;;;3.40;;
4122;SDS011;2075;51.062;6.920;2024-03-02T08:29:28;3.50;;;2.67;;
4122;SDS011;2075;51.062;6.920;2024-03-02T08:32:15;3.13;;;2.93;;
4122;SDS011;2075;51.062;6.920;2024-03-02T08:35:03;3.23;;;3.00;;
4122;SDS011;2075;51.062;6.920;2024-03-02T08:37:50;3.47;;;3.20;;
4122;SDS011;2075;51.062;6.920;2024-03-02T08:40:35;2.70;;;2.47;;
4122;SDS011;2075;51.062;6.920;2024-03-02T08:43:21;8.10;;;3.37;;
4122;SDS011;2075;51.062;6.920;2024-03-02T08:46:07;5.67;;;2.80;;
4122;SDS011;2075;51.062;6.920;2024-03-02T08:48:55;5.20;;;3.50;;
4122;SDS011;2075;51.062;6.920;2024-03-02T08:51:43;3.77;;;3.37;;
4122;SDS011;2075;51.062;6.920;2024-03-02T08:54:42;3.23;;;3.03;;
4122;SDS011;2075;51.062;6.920;2024-03-02T08:57:27;5.23;;;3.13;;
4122;SDS011;2075;51.062;6.920;2024-03-02T09:00:14;3.13;;;2.93;;
4122;SDS011;2075;51.062;6.920;2024-03-02T09:03:01;3.53;;;2.70;;
4122;SDS011;2075;51.062;6.920;2024-03-02T09:05:47;7.10;;;2.77;;
4122;SDS011;2075;51.062;6.920;2024-03-02T09:08:33;6.13;;;4.37;;
4122;SDS011;2075;51.062;6.920;2024-03-02T09:11:20;3.50;;;2.70;;
4122;SDS011;2075;51.062;6.920;2024-03-02T09:14:08;4.43;;;2.30;;
4122;SDS011;2075;51.062;6.920;2024-03-02T09:16:56;3.00;;;2.00;;
4122;SDS011;2075;51.062;6.920;2024-03-02T09:19:42;2.77;;;2.40;;
4122;SDS011;2075;51.062;6.920;2024-03-02T09:22:29;3.13;;;2.77;;
4122;SDS011;2075;51.062;6.920;2024-03-02T09:25:17;3.53;;;2.73;;
4122;SDS011;2075;51.062;6.920;2024-03-02T09:28:02;2.67;;;2.20;;
4122;SDS011;2075;51.062;6.920;2024-03-02T09:30:48;2.70;;;2.23;;
4122;SDS011;2075;51.062;6.920;2024-03-02T09:33:34;3.93;;;3.53;;
4122;SDS011;2075;51.062;6.920;2024-03-02T09:36:20;2.37;;;2.10;;
4122;SDS011;2075;51.062;6.920;2024-03-02T09:39:09;3.43;;;2.17;;
4122;SDS011;2075;51.062;6.920;2024-03-02T09:41:55;4.60;;;2.07;;
4122;SDS011;2075;51.062;6.920;2024-03-02T09:44:42;4.53;;;2.40;;
4122;SDS011;2075;51.062;6.920;2024-03-02T09:47:33;2.20;;;2.00;;
4122;SDS011;2075;51.062;6.920;2024-03-02T09:50:38;4.60;;;2.77;;
4122;SDS011;2075;51.062;6.920;2024-03-02T09:53:25;5.40;;;2.60;;
4122;SDS011;2075;51.062;6.920;2024-03-02T09:56:18;2.27;;;2.07;;
4122;SDS011;2075;51.062;6.920;2024-03-02T09:59:06;3.47;;;2.30;;
4122;SDS011;2075;51.062;6.920;2024-03-02T10:01:55;2.90;;;2.20;;
4122;SDS011;2075;51.062;6.920;2024-03-02T10:04:42;6.17;;;2.20;;
4122;SDS011;2075;51.062;6.920;2024-03-02T10:07:30;1.90;;;1.80;;
4122;SDS011;2075;51.062;6.920;2024-03-02T10:10:17;4.20;;;2.13;;
4122;SDS011;2075;51.062;6.920;2024-03-02T10:13:05;2.10;;;1.80;;
4122;SDS011;2075;51.062;6.920;2024-03-02T10:15:52;3.73;;;2.53;;
4122;SDS011;2075;51.062;6.920;2024-03-02T10:18:38;2.57;;;2.30;;
4122;SDS011;2075;51.062;6.920;2024-03-02T10:21:24;1.73;;;1.63;;
4122;SDS011;2075;51.062;6.920;2024-03-02T10:24:09;2.50;;;2.30;;
4122;SDS011;2075;51.062;6.920;2024-03-02T10:26:55;2.53;;;2.30;;
4122;SDS011;2075;51.062;6.920;2024-03-02T10:29:42;3.13;;;1.70;;
4122;SDS011;2075;51.062;6.920;2024-03-02T10:32:30;2.50;;;1.93;;
4122;SDS011;2075;51.062;6.920;2024-03-02T10:35:16;2.13;;;1.90;;
4122;SDS011;2075;51.062;6.920;2024-03-02T10:38:03;1.90;;;1.80;;
4122;SDS011;2075;51.062;6.920;2024-03-02T10:40:49;2.40;;;1.80;;
4122;SDS011;2075;51.062;6.920;2024-03-02T10:43:35;4.83;;;2.27;;
4122;SDS011;2075;51.062;6.920;2024-03-02T10:46:22;2.50;;;2.10;;
4122;SDS011;2075;51.062;6.920;2024-03-02T10:49:08;2.33;;;2.13;;
4122;SDS011;2075;51.062;6.920;2024-03-02T10:51:55;1.90;;;1.80;;
4122;SDS011;2075;51.062;6.920;2024-03-02T10:54:40;2.97;;;2.20;;
4122;SDS011;2075;51.062;6.920;2024-03-02T10:57:27;2.72;;;2.30;;
4122;SDS011;2075;51.062;6.920;2024-03-02T11:00:25;3.70;;;2.33;;
4122;SDS011;2075;51.062;6.920;2024-03-02T11:03:17;3.87;;;2.37;;
4122;SDS011;2075;51.062;6.920;2024-03-02T11:06:04;2.67;;;2.20;;
4122;SDS011;2075;51.062;6.920;2024-03-02T11:08:55;1.83;;;1.40;;
4122;SDS011;2075;51.062;6.920;2024-03-02T11:11:48;2.73;;;2.13;;
4122;SDS011;2075;51.062;6.920;2024-03-02T11:14:40;3.07;;;1.90;;
4122;SDS011;2075;51.062;6.920;2024-03-02T11:17:27;2.33;;;2.10;;
4122;SDS011;2075;51.062;6.920;2024-03-02T11:20:15;3.60;;;2.20;;
4122;SDS011;2075;51.062;6.920;2024-03-02T11:23:04;2.60;;;2.30;;
4122;SDS011;2075;51.062;6.920;2024-03-02T11:25:50;5.17;;;2.40;;
4122;SDS011;2075;51.062;6.920;2024-03-02T11:28:36;2.70;;;2.15;;
4122;SDS011;2075;51.062;6.920;2024-03-02T11:34:43;4.70;;;2.73;;
4122;SDS011;2075;51.062;6.920;2024-03-02T11:37:33;2.07;;;1.97;;
4122;SDS011;2075;51.062;6.920;2024-03-02T11:40:21;1.80;;;1.70;;
4122;SDS011;2075;51.062;6.920;2024-03-02T11:43:07;4.15;;;2.00;;
4122;SDS011;2075;51.062;6.920;2024-03-02T11:45:57;2.93;;;1.60;;
4122;SDS011;2075;51.062;6.920;2024-03-02T11:48:43;4.10;;;2.10;;
4122;SDS011;2075;51.062;6.920;2024-03-02T11:51:29;1.80;;;1.70;;
4122;SDS011;2075;51.062;6.920;2024-03-02T11:54:17;2.47;;;2.17;;
4122;SDS011;2075;51.062;6.920;2024-03-02T11:57:03;2.17;;;2.07;;
4122;SDS011;2075;51.062;6.920;2024-03-02T11:59:49;1.83;;;1.73;;
4122;SDS011;2075;51.062;6.920;2024-03-02T12:02:35;2.20;;;2.00;;
4122;SDS011;2075;51.062;6.920;2024-03-02T12:05:20;1.70;;;1.50;;
4122;SDS011;2075;51.062;6.920;2024-03-02T12:08:06;2.37;;;1.87;;
4122;SDS011;2075;51.062;6.920;2024-03-02T12:10:57;1.40;;;1.40;;
4122;SDS011;2075;51.062;6.920;2024-03-02T12:13:51;1.73;;;1.63;;
4122;SDS011;2075;51.062;6.920;2024-03-02T12:16:38;1.80;;;1.70;;
4122;SDS011;2075;51.062;6.920;2024-03-02T12:19:25;1.80;;;1.70;;
4122;SDS011;2075;51.062;6.920;2024-03-02T12:22:13;1.80;;;1.70;;
4122;SDS011;2075;51.062;6.920;2024-03-02T12:25:00;1.90;;;1.80;;
4122;SDS011;2075;51.062;6.920;2024-03-02T12:27:49;4.03;;;2.13;;
4122;SDS011;2075;51.062;6.920;2024-03-02T12:30:35;2.50;;;1.60;;
4122;SDS011;2075;51.062;6.920;2024-03-02T12:33:22;1.97;;;1.77;;
4122;SDS011;2075;51.062;6.920;2024-03-02T12:36:09;1.80;;;1.70;;
4122;SDS011;2075;51.062;6.920;2024-03-02T12:38:56;2.00;;;1.90;;
4122;SDS011;2075;51.062;6.920;2024-03-02T12:41:41;3.17;;;1.93;;
4122;SDS011;2075;51.062;6.920;2024-03-02T12:44:29;1.80;;;1.60;;
4122;SDS011;2075;51.062;6.920;2024-03-02T12:47:14;1.70;;;1.60;;
4122;SDS011;2075;51.062;6.920;2024-03-02T12:50:00;3.20;;;1.50;;
4122;SDS011;2075;51.062;6.920;2024-03-02T12:52:50;1.70;;;1.60;;
4122;SDS011;2075;51.062;6.920;2024-03-02T12:55:37;1.60;;;1.50;;
4122;SDS011;2075;51.062;6.920;2024-03-02T12:58:23;1.75;;;1.65;;
4122;SDS011;2075;51.062;6.920;2024-03-02T13:01:14;3.00;;;2.10;;
4122;SDS011;2075;51.062;6.920;2024-03-02T13:04:02;1.70;;;1.60;;
4122;SDS011;2075;51.062;6.920;2024-03-02T13:06:48;2.57;;;1.53;;
4122;SDS011;2075;51.062;6.920;2024-03-02T13:09:35;1.60;;;1.37;;
4122;SDS011;2075;51.062;6.920;2024-03-02T13:12:23;2.73;;;1.60;;
4122;SDS011;2075;51.062;6.920;2024-03-02T13:15:10;1.90;;;1.80;;
4122;SDS011;2075;51.062;6.920;2024-03-02T13:18:00;1.80;;;1.70;;
4122;SDS011;2075;51.062;6.920;2024-03-02T13:20:45;1.60;;;1.50;;
4122;SDS011;2075;51.062;6.920;2024-03-02T13:23:31;3.53;;;1.63;;
4122;SDS011;2075;51.062;6.920;2024-03-02T13:26:16;2.00;;;1.90;;
4122;SDS011;2075;51.062;6.920;2024-03-02T13:29:02;4.00;;;1.37;;
4122;SDS011;2075;51.062;6.920;2024-03-02T13:31:48;1.60;;;1.50;;
4122;SDS011;2075;51.062;6.920;2024-03-02T13:34:35;1.77;;;1.50;;
4122;SDS011;2075;51.062;6.920;2024-03-02T13:37:31;1.90;;;1.80;;
4122;SDS011;2075;51.062;6.920;2024-03-02T13:40:16;1.73;;;1.63;;
4122;SDS011;2075;51.062;6.920;2024-03-02T13:43:04;2.00;;;1.90;;
4122;SDS011;2075;51.062;6.920;2024-03-02T13:45:49;1.37;;;1.37;;
4122;SDS011;2075;51.062;6.920;2024-03-02T13:48:37;1.57;;;1.47;;
4122;SDS011;2075;51.062;6.920;2024-03-02T13:51:25;1.57;;;1.47;;
4122;SDS011;2075;51.062;6.920;2024-03-02T13:54:11;1.80;;;1.70;;
4122;SDS011;2075;51.062;6.920;2024-03-02T13:56:57;1.87;;;1.70;;
4122;SDS011;2075;51.062;6.920;2024-03-02T13:59:42;1.43;;;1.33;;
4122;SDS011;2075;51.062;6.920;2024-03-02T14:02:28;1.97;;;1.80;;
4122;SDS011;2075;51.062;6.920;2024-03-02T14:05:14;1.47;;;1.37;;
4122;SDS011;2075;51.062;6.920;2024-03-02T14:08:01;1.77;;;1.67;;
4122;SDS011;2075;51.062;6.920;2024-03-02T14:10:48;2.20;;;2.10;;
4122;SDS011;2075;51.062;6.920;2024-03-02T14:13:33;1.87;;;1.73;;
4122;SDS011;2075;51.062;6.920;2024-03-02T14:16:19;2.80;;;1.63;;
4122;SDS011;2075;51.062;6.920;2024-03-02T14:19:05;2.57;;;1.57;;
4122;SDS011;2075;51.062;6.920;2024-03-02T14:21:50;1.40;;;1.30;;
4122;SDS011;2075;51.062;6.920;2024-03-02T14:24:37;1.40;;;1.30;;
4122;SDS011;2075;51.062;6.920;2024-03-02T14:27:22;2.83;;;1.83;;
4122;SDS011;2075;51.062;6.920;2024-03-02T14:30:10;1.43;;;1.33;;
4122;SDS011;2075;51.062;6.920;2024-03-02T14:32:56;1.43;;;1.40;;
4122;SDS011;2075;51.062;6.920;2024-03-02T14:35:41;1.40;;;1.30;;
4122;SDS011;2075;51.062;6.920;2024-03-02T14:38:29;1.23;;;1.23;;
4122;SDS011;2075;51.062;6.920;2024-03-02T14:41:18;2.50;;;1.70;;
4122;SDS011;2075;51.062;6.920;2024-03-02T14:44:08;3.70;;;1.87;;
4122;SDS011;2075;51.062;6.920;2024-03-02T14:46:55;2.35;;;1.83;;
4122;SDS011;2075;51.062;6.920;2024-03-02T14:49:45;1.70;;;1.60;;
4122;SDS011;2075;51.062;6.920;2024-03-02T14:52:31;1.60;;;1.60;;
4122;SDS011;2075;51.062;6.920;2024-03-02T14:55:18;1.83;;;1.70;;
4122;SDS011;2075;51.062;6.920;2024-03-02T14:58:05;1.77;;;1.60;;
4122;SDS011;2075;51.062;6.920;2024-03-02T15:00:52;1.67;;;1.57;;
4122;SDS011;2075;51.062;6.920;2024-03-02T15:03:38;1.77;;;1.60;;
4122;SDS011;2075;51.062;6.920;2024-03-02T15:06:23;1.53;;;1.43;;
4122;SDS011;2075;51.062;6.920;2024-03-02T15:09:09;2.47;;;1.57;;
4122;SDS011;2075;51.062;6.920;2024-03-02T15:11:55;1.40;;;1.40;;
4122;SDS011;2075;51.062;6.920;2024-03-02T15:14:43;1.60;;;1.50;;
4122;SDS011;2075;51.062;6.920;2024-03-02T15:17:31;1.30;;;1.30;;
4122;SDS011;2075;51.062;6.920;2024-03-02T15:20:17;1.50;;;1.40;;
4122;SDS011;2075;51.062;6.920;2024-03-02T15:23:02;1.17;;;1.17;;
4122;SDS011;2075;51.062;6.920;2024-03-02T15:25:48;2.63;;;1.40;;
4122;SDS011;2075;51.062;6.920;2024-03-02T15:28:33;6.33;;;1.50;;
4122;SDS011;2075;51.062;6.920;2024-03-02T15:31:20;1.30;;;1.30;;
4122;SDS011;2075;51.062;6.920;2024-03-02T15:34:06;2.53;;;1.47;;
4122;SDS011;2075;51.062;6.920;2024-03-02T15:36:52;1.70;;;1.60;;
4122;SDS011;2075;51.062;6.920;2024-03-02T15:39:37;2.00;;;1.83;;
4122;SDS011;2075;51.062;6.920;2024-03-02T15:42:24;1.67;;;1.57;;
4122;SDS011;2075;51.062;6.920;2024-03-02T15:45:10;1.60;;;1.60;;
4122;SDS011;2075;51.062;6.920;2024-03-02T15:47:57;1.90;;;1.80;;
4122;SDS011;2075;51.062;6.920;2024-03-02T15:50:44;1.97;;;1.87;;
4122;SDS011;2075;51.062;6.920;2024-03-02T15:53:35;1.60;;;1.50;;
4122;SDS011;2075;51.062;6.920;2024-03-02T15:56:21;1.50;;;1.40;;
4122;SDS011;2075;51.062;6.920;2024-03-02T15:59:07;1.70;;;1.60;;
4122;SDS011;2075;51.062;6.920;2024-03-02T16:01:52;1.20;;;1.20;;
4122;SDS011;2075;51.062;6.920;2024-03-02T16:04:42;1.73;;;1.63;;
4122;SDS011;2075;51.062;6.920;2024-03-02T16:07:27;1.20;;;1.20;;
4122;SDS011;2075;51.062;6.920;2024-03-02T16:10:13;2.00;;;1.60;;
4122;SDS011;2075;51.062;6.920;2024-03-02T16:13:00;1.43;;;1.10;;
4122;SDS011;2075;51.062;6.920;2024-03-02T16:15:47;1.30;;;1.30;;
4122;SDS011;2075;51.062;6.920;2024-03-02T16:18:32;1.50;;;1.40;;
4122;SDS011;2075;51.062;6.920;2024-03-02T16:21:20;1.33;;;1.27;;
4122;SDS011;2075;51.062;6.920;2024-03-02T16:24:15;1.60;;;1.50;;
4122;SDS011;2075;51.062;6.920;2024-03-02T16:27:01;1.77;;;1.67;;
4122;SDS011;2075;51.062;6.920;2024-03-02T16:29:47;2.40;;;1.87;;
4122;SDS011;2075;51.062;6.920;2024-03-02T16:32:34;4.63;;;1.63;;
4122;SDS011;2075;51.062;6.920;2024-03-02T16:35:20;1.50;;;1.50;;
4122;SDS011;2075;51.062;6.920;2024-03-02T16:38:07;2.23;;;1.67;;
4122;SDS011;2075;51.062;6.920;2024-03-02T16:40:54;1.33;;;1.33;;
4122;SDS011;2075;51.062;6.920;2024-03-02T16:43:40;1.73;;;1.63;;
4122;SDS011;2075;51.062;6.920;2024-03-02T16:46:28;1.30;;;1.20;;
4122;SDS011;2075;51.062;6.920;2024-03-02T16:49:14;1.90;;;1.80;;
4122;SDS011;2075;51.062;6.920;2024-03-02T16:52:00;1.57;;;1.40;;
4122;SDS011;2075;51.062;6.920;2024-03-02T16:54:50;1.57;;;1.47;;
4122;SDS011;2075;51.062;6.920;2024-03-02T16:57:40;1.80;;;1.70;;
4122;SDS011;2075;51.062;6.920;2024-03-02T17:00:27;2.23;;;1.47;;
4122;SDS011;2075;51.062;6.920;2024-03-02T17:03:30;1.37;;;1.37;;
4122;SDS011;2075;51.062;6.920;2024-03-02T17:06:15;1.60;;;1.50;;
4122;SDS011;2075;51.062;6.920;2024-03-02T17:09:01;1.37;;;1.30;;
4122;SDS011;2075;51.062;6.920;2024-03-02T17:11:49;1.50;;;1.40;;
4122;SDS011;2075;51.062;6.920;2024-03-02T17:14:35;1.40;;;1.30;;
4122;SDS011;2075;51.062;6.920;2024-03-02T17:17:22;1.40;;;1.30;;
4122;SDS011;2075;51.062;6.920;2024-03-02T17:20:07;1.33;;;1.23;;
4122;SDS011;2075;51.062;6.920;2024-03-02T17:22:55;1.40;;;1.40;;